createdAt,value
2022-09-05T00:02:02.806Z,83.80
2022-09-05T00:04:57.223Z,83.50
2022-09-05T00:07:58.478Z,83.50
2022-09-05T00:10:37.484Z,83.50
2022-09-05T00:13:26.614Z,83.50
2022-09-05T00:16:33.389Z,83.50
2022-09-05T00:24:20.081Z,83.60
2022-09-05T00:24:33.161Z,83.60
2022-09-05T00:25:41.890Z,83.60
2022-09-05T00:28:26.023Z,83.80
2022-09-05T00:31:56.364Z,83.80
2022-09-05T00:34:08.674Z,83.90
2022-09-05T00:36:45.723Z,83.90
2022-09-05T00:39:26.528Z,83.90
2022-09-05T00:41:57.778Z,84.10
2022-09-05T00:44:27.286Z,84.10
2022-09-05T00:47:23.203Z,84.10
2022-09-05T00:49:59.931Z,84.30
2022-09-05T00:53:07.006Z,84.40
2022-09-05T00:56:01.441Z,84.30
2022-09-05T00:59:04.149Z,84.20
2022-09-05T01:01:39.065Z,85.00
2022-09-05T01:04:24.983Z,84.40
2022-09-05T01:07:14.539Z,84.50
2022-09-05T01:09:57.032Z,84.50
2022-09-05T01:12:42.522Z,84.60
2022-09-05T01:15:32.160Z,84.60
2022-09-05T01:18:19.589Z,84.60
2022-09-05T01:20:55.987Z,84.60
2022-09-05T01:23:36.130Z,84.70
2022-09-05T01:26:21.062Z,84.70
2022-09-05T01:29:15.631Z,84.70
2022-09-05T01:32:03.537Z,84.70
2022-09-05T01:34:42.234Z,84.70
2022-09-05T01:37:33.491Z,84.70
2022-09-05T01:40:19.786Z,84.70
2022-09-05T01:43:11.058Z,84.70
2022-09-05T01:46:11.572Z,84.80
2022-09-05T01:48:54.587Z,84.90
2022-09-05T01:51:47.733Z,84.90
2022-09-05T01:54:54.085Z,85.10
2022-09-05T01:57:59.301Z,85.10
2022-09-05T02:00:49.355Z,85.10
2022-09-05T02:03:21.503Z,85.10
2022-09-05T02:06:11.886Z,85.10
2022-09-05T02:08:53.641Z,85.10
2022-09-05T02:11:37.313Z,85.10
2022-09-05T02:14:10.656Z,85.10
2022-09-05T02:16:38.170Z,85.40
2022-09-05T02:19:06.749Z,85.30
2022-09-05T02:21:33.532Z,85.30
2022-09-05T02:24:26.456Z,85.40
2022-09-05T02:27:35.880Z,85.40
2022-09-05T02:30:16.176Z,85.40
2022-09-05T02:33:20.238Z,85.40
2022-09-05T02:36:07.361Z,85.40
2022-09-05T02:45:03.549Z,85.40
2022-09-05T02:45:17.100Z,85.60
2022-09-05T02:45:25.488Z,85.50
2022-09-05T02:48:23.449Z,85.60
2022-09-05T02:57:20.245Z,85.50
2022-09-05T02:57:24.610Z,85.60
2022-09-05T02:58:06.431Z,85.80
2022-09-05T02:59:46.082Z,85.80
2022-09-05T03:02:30.987Z,85.80
2022-09-05T03:05:12.936Z,85.90
2022-09-05T03:07:39.635Z,86.00
2022-09-05T03:10:53.268Z,85.90
2022-09-05T03:13:30.555Z,86.00
2022-09-05T03:16:07.733Z,85.90
2022-09-05T03:18:53.254Z,85.90
2022-09-05T03:21:38.094Z,86.00
2022-09-05T03:24:23.485Z,86.10
2022-09-05T03:27:23.789Z,86.30
2022-09-05T03:30:02.094Z,86.20
2022-09-05T03:33:03.164Z,86.10
2022-09-05T03:35:49.268Z,86.20
2022-09-05T03:38:38.144Z,86.20
2022-09-05T03:41:33.902Z,86.20
2022-09-05T03:44:20.841Z,86.30
2022-09-05T03:46:53.636Z,86.20
2022-09-05T03:51:41.745Z,86.10
2022-09-05T03:57:19.944Z,86.50
2022-09-05T03:57:22.569Z,86.30
2022-09-05T03:58:56.773Z,86.20
2022-09-05T04:03:21.562Z,86.30
2022-09-05T04:08:18.068Z,86.20
2022-09-05T04:08:18.633Z,86.30
2022-09-05T04:10:45.742Z,86.30
2022-09-05T04:13:27.038Z,86.40
2022-09-05T04:16:11.112Z,86.50
2022-09-05T04:18:41.917Z,86.50
2022-09-05T04:21:13.840Z,86.60
2022-09-05T04:24:05.177Z,86.70
2022-09-05T04:26:47.970Z,86.60
2022-09-05T04:29:39.730Z,86.70
2022-09-05T04:32:31.291Z,86.70
2022-09-05T04:35:07.046Z,86.60
2022-09-05T04:37:48.046Z,86.70
2022-09-05T04:40:33.052Z,86.70
2022-09-05T04:43:05.775Z,86.70
2022-09-05T04:45:37.557Z,86.80
2022-09-05T04:48:06.948Z,86.70
2022-09-05T04:51:03.191Z,86.70
2022-09-05T04:54:01.468Z,86.70
2022-09-05T04:56:35.315Z,86.70
2022-09-05T05:01:46.037Z,86.70
2022-09-05T05:06:02.017Z,86.70
2022-09-05T05:06:14.078Z,86.50
2022-09-05T05:08:29.163Z,86.60
2022-09-05T05:17:56.011Z,86.50
2022-09-05T05:18:02.406Z,86.60
2022-09-05T05:18:10.384Z,86.50
2022-09-05T05:20:42.044Z,86.50
2022-09-05T05:23:16.625Z,86.60
2022-09-05T05:25:51.913Z,86.60
2022-09-05T05:28:30.794Z,86.60
2022-09-05T05:31:15.450Z,87.50
2022-09-05T05:33:46.781Z,86.80
2022-09-05T05:36:20.590Z,86.70
2022-09-05T05:38:53.451Z,86.70
2022-09-05T05:41:34.931Z,86.60
2022-09-05T05:44:14.891Z,86.50
2022-09-05T05:46:47.571Z,86.40
2022-09-05T05:49:41.692Z,86.30
2022-09-05T05:52:35.573Z,86.10
2022-09-05T05:55:51.810Z,86.00
2022-09-05T05:58:59.872Z,85.80
2022-09-05T06:02:02.976Z,85.40
2022-09-05T06:04:51.485Z,85.20
2022-09-05T06:09:11.398Z,84.90
2022-09-05T06:14:51.045Z,84.70
2022-09-05T06:14:58.707Z,84.40
2022-09-05T06:16:52.236Z,84.20
2022-09-05T06:19:54.537Z,83.90
2022-09-05T06:22:50.319Z,83.70
2022-09-05T06:25:32.612Z,83.80
2022-09-05T06:28:18.344Z,83.40
2022-09-05T06:31:31.267Z,83.10
2022-09-05T06:34:33.455Z,83.00
2022-09-05T06:37:29.460Z,83.00
2022-09-05T06:40:05.763Z,82.50
2022-09-05T06:42:50.297Z,82.40
2022-09-05T06:45:27.535Z,82.40
2022-09-05T06:48:07.046Z,82.20
2022-09-05T06:51:08.118Z,81.70
2022-09-05T06:53:56.825Z,81.00
2022-09-05T06:56:29.244Z,79.90
2022-09-05T06:59:35.756Z,79.70
2022-09-05T07:02:08.636Z,78.90
2022-09-05T07:05:37.117Z,79.20
2022-09-05T07:07:36.743Z,78.60
2022-09-05T07:10:34.641Z,78.50
2022-09-05T07:13:22.387Z,77.90
2022-09-05T07:16:02.183Z,76.60
2022-09-05T07:18:43.649Z,77.60
2022-09-05T07:21:26.813Z,77.30
2022-09-05T07:24:11.055Z,76.20
2022-09-05T07:26:53.832Z,76.40
2022-09-05T07:29:32.241Z,75.50
2022-09-05T07:32:00.018Z,76.00
2022-09-05T07:34:31.611Z,76.40
2022-09-05T07:37:20.828Z,75.80
2022-09-05T07:39:54.677Z,76.40
2022-09-05T07:42:26.830Z,76.30
2022-09-05T07:45:00.911Z,76.10
2022-09-05T07:47:31.028Z,76.90
2022-09-05T07:51:21.555Z,75.90
2022-09-05T07:56:52.514Z,76.40
2022-09-05T07:57:05.036Z,76.30
2022-09-05T07:58:39.757Z,76.10
2022-09-05T08:01:08.799Z,76.20
2022-09-05T08:03:35.598Z,75.00
2022-09-05T08:06:05.687Z,74.80
2022-09-05T08:09:20.449Z,75.30
2022-09-05T08:11:37.801Z,75.50
2022-09-05T08:14:44.218Z,75.40
2022-09-05T08:16:59.531Z,75.20
2022-09-05T08:19:38.240Z,75.10
2022-09-05T08:22:06.188Z,74.30
2022-09-05T08:24:38.110Z,73.90
2022-09-05T08:27:19.050Z,73.90
2022-09-05T08:30:24.604Z,72.60
2022-09-05T08:33:10.476Z,73.00
2022-09-05T08:35:44.622Z,72.70
2022-09-05T08:38:14.061Z,72.30
2022-09-05T08:41:04.311Z,72.70
2022-09-05T08:46:04.496Z,70.70
2022-09-05T08:46:46.453Z,71.30
2022-09-05T08:49:44.003Z,71.60
2022-09-05T08:52:21.989Z,71.30
2022-09-05T08:55:13.357Z,70.60
2022-09-05T08:57:46.490Z,71.50
2022-09-05T09:00:24.150Z,71.10
2022-09-05T09:03:08.893Z,70.10
2022-09-05T09:06:08.499Z,69.20
2022-09-05T09:08:56.719Z,69.90
2022-09-05T09:11:23.386Z,69.00
2022-09-05T09:13:56.102Z,68.90
2022-09-05T09:16:52.441Z,69.00
2022-09-05T09:19:48.506Z,68.60
2022-09-05T09:22:53.566Z,68.20
2022-09-05T09:25:30.732Z,69.10
2022-09-05T09:28:48.785Z,69.20
2022-09-05T09:31:13.163Z,68.50
2022-09-05T09:33:52.043Z,68.50
2022-09-05T09:36:59.549Z,68.50
2022-09-05T09:40:10.581Z,66.20
2022-09-05T09:42:51.274Z,66.00
2022-09-05T09:45:45.238Z,67.30
2022-09-05T09:48:36.653Z,66.30
2022-09-05T09:51:34.905Z,66.90
2022-09-05T09:54:20.086Z,65.80
2022-09-05T09:57:18.243Z,65.90
2022-09-05T09:59:54.676Z,63.40
2022-09-05T10:04:51.289Z,65.10
2022-09-05T10:10:40.320Z,63.50
2022-09-05T10:11:21.554Z,63.20
2022-09-05T10:12:11.991Z,63.50
2022-09-05T10:15:02.612Z,64.20
2022-09-05T10:17:50.325Z,63.10
2022-09-05T10:20:35.457Z,62.00
2022-09-05T10:23:24.092Z,63.30
2022-09-05T10:26:31.002Z,62.10
2022-09-05T10:29:38.055Z,63.50
2022-09-05T10:35:09.783Z,62.50
2022-09-05T10:35:21.092Z,61.50
2022-09-05T10:37:58.454Z,62.40
2022-09-05T10:40:27.088Z,62.90
2022-09-05T10:43:29.869Z,63.00
2022-09-05T10:45:56.670Z,62.20
2022-09-05T10:48:27.138Z,61.80
2022-09-05T10:51:38.642Z,60.60
2022-09-05T10:54:38.065Z,60.00
2022-09-05T10:57:34.699Z,60.00
2022-09-05T11:02:23.584Z,60.60
2022-09-05T11:02:53.937Z,60.80
2022-09-05T11:05:36.513Z,60.20
2022-09-05T11:08:32.252Z,61.20
2022-09-05T11:11:28.429Z,60.10
2022-09-05T11:14:26.299Z,59.50
2022-09-05T11:17:23.531Z,60.20
2022-09-05T11:20:05.309Z,60.90
2022-09-05T11:22:39.629Z,59.90
2022-09-05T11:25:40.579Z,59.70
2022-09-05T11:28:17.443Z,59.80
2022-09-05T11:30:50.899Z,61.50
2022-09-05T11:39:46.019Z,61.30
2022-09-05T11:40:07.144Z,60.20
2022-09-05T11:40:29.249Z,59.60
2022-09-05T11:42:53.388Z,60.80
2022-09-05T11:45:43.949Z,59.80
2022-09-05T11:48:11.595Z,60.90
2022-09-05T11:51:06.191Z,58.70
2022-09-05T11:54:13.802Z,58.40
2022-09-05T11:57:33.384Z,59.20
2022-09-05T12:00:32.742Z,58.40
2022-09-05T12:03:59.730Z,58.10
2022-09-05T12:06:30.993Z,57.20
2022-09-05T12:09:06.292Z,57.60
2022-09-05T12:11:55.141Z,56.20
2022-09-05T12:14:49.341Z,56.90
2022-09-05T12:17:41.963Z,56.70
2022-09-05T12:20:22.120Z,55.50
2022-09-05T12:23:19.574Z,55.30
2022-09-05T12:27:39.893Z,55.00
2022-09-05T12:29:33.394Z,55.00
2022-09-05T12:33:56.688Z,55.90
2022-09-05T12:36:12.660Z,56.90
2022-09-05T12:39:59.600Z,54.70
2022-09-05T12:42:09.961Z,55.10
2022-09-05T12:44:42.166Z,55.70
2022-09-05T12:47:00.155Z,54.80
2022-09-05T12:50:02.636Z,54.30
2022-09-05T12:52:33.650Z,54.50
2022-09-05T12:55:19.354Z,54.50
2022-09-05T13:01:31.949Z,54.50
2022-09-05T13:03:06.075Z,53.50
2022-09-05T13:03:37.916Z,54.30
2022-09-05T13:06:25.261Z,55.10
2022-09-05T13:08:59.890Z,54.50
2022-09-05T13:14:48.431Z,55.00
2022-09-05T13:15:07.985Z,55.60
2022-09-05T13:17:13.870Z,55.50
2022-09-05T13:19:45.656Z,55.10
2022-09-05T13:22:14.854Z,55.30
2022-09-05T13:24:44.827Z,55.00
2022-09-05T13:27:14.719Z,55.30
2022-09-05T13:31:24.843Z,55.20
2022-09-05T13:37:58.025Z,55.60
2022-09-05T13:37:59.035Z,54.70
2022-09-05T13:38:48.128Z,54.80
2022-09-05T13:41:27.844Z,54.50
2022-09-05T13:44:00.308Z,54.70
2022-09-05T13:47:30.862Z,55.60
2022-09-05T13:50:17.326Z,56.10
2022-09-05T13:52:49.845Z,56.70
2022-09-05T13:55:21.952Z,56.90
2022-09-05T13:58:00.044Z,56.80
2022-09-05T14:00:34.949Z,56.70
2022-09-05T14:03:40.132Z,57.20
2022-09-05T14:06:47.411Z,57.00
2022-09-05T14:09:38.524Z,56.90
2022-09-05T14:12:29.254Z,57.40
2022-09-05T14:15:15.758Z,57.40
2022-09-05T14:18:20.179Z,57.50
2022-09-05T14:21:17.321Z,57.30
2022-09-05T14:23:54.097Z,57.50
2022-09-05T14:26:33.375Z,57.50
2022-09-05T14:29:00.015Z,57.60
2022-09-05T14:37:34.845Z,57.70
2022-09-05T14:38:00.874Z,57.70
2022-09-05T14:38:11.499Z,57.40
2022-09-05T14:41:02.929Z,57.60
2022-09-05T14:43:53.565Z,58.00
2022-09-05T14:46:53.247Z,57.90
2022-09-05T14:49:49.420Z,57.70
2022-09-05T14:52:23.590Z,57.70
2022-09-05T15:02:42.984Z,58.20
2022-09-05T15:02:54.798Z,58.20
2022-09-05T15:06:33.337Z,58.70
2022-09-05T15:10:49.772Z,58.70
2022-09-05T15:12:23.479Z,58.90
2022-09-05T15:14:36.558Z,58.80
2022-09-05T15:17:05.104Z,59.10
2022-09-05T15:20:05.805Z,59.30
2022-09-05T15:22:35.957Z,59.40
2022-09-05T15:25:21.347Z,59.60
2022-09-05T15:27:49.517Z,59.40
2022-09-05T15:30:35.545Z,59.40
2022-09-05T15:33:25.644Z,59.40
2022-09-05T15:35:53.072Z,59.00
2022-09-05T15:38:55.156Z,58.50
2022-09-05T15:41:28.107Z,58.90
2022-09-05T15:44:11.756Z,59.00
2022-09-05T15:46:51.429Z,59.20
2022-09-05T15:49:24.181Z,59.30
2022-09-05T15:51:52.775Z,59.50
2022-09-05T15:54:49.730Z,59.60
2022-09-05T15:57:34.724Z,59.70
2022-09-05T16:00:07.946Z,59.60
2022-09-05T16:02:43.547Z,59.60
2022-09-05T16:10:29.255Z,59.40
2022-09-05T16:10:48.602Z,59.30
2022-09-05T16:14:39.426Z,59.00
2022-09-05T16:23:13.424Z,58.90
2022-09-05T16:23:17.947Z,58.90
2022-09-05T16:23:28.980Z,58.80
2022-09-05T16:25:55.110Z,58.80
2022-09-05T16:28:30.748Z,58.80
2022-09-05T16:31:04.755Z,59.40
2022-09-05T16:33:33.876Z,58.30
2022-09-05T16:36:17.233Z,57.90
2022-09-05T16:38:56.908Z,57.70
2022-09-05T16:41:48.401Z,57.70
2022-09-05T16:44:21.113Z,57.60
2022-09-05T16:47:25.514Z,57.30
2022-09-05T16:49:58.706Z,57.50
2022-09-05T16:52:53.725Z,57.50
2022-09-05T16:55:29.656Z,57.60
2022-09-05T16:58:18.906Z,57.80
2022-09-05T17:00:52.481Z,57.80
2022-09-05T17:03:28.850Z,58.00
2022-09-05T17:06:26.173Z,58.10
2022-09-05T17:09:00.830Z,58.30
2022-09-05T17:12:00.816Z,58.40
2022-09-05T17:14:34.863Z,58.20
2022-09-05T17:18:18.992Z,58.00
2022-09-05T17:20:21.290Z,58.20
2022-09-05T17:29:15.584Z,58.20
2022-09-05T17:29:43.155Z,58.40
2022-09-05T17:29:49.404Z,58.30
2022-09-05T17:31:54.221Z,58.50
2022-09-05T17:35:16.577Z,58.50
2022-09-05T17:37:53.584Z,58.50
2022-09-05T17:40:57.182Z,58.80
2022-09-05T17:43:33.140Z,59.10
2022-09-05T17:46:12.496Z,59.30
2022-09-05T17:49:18.347Z,59.70
2022-09-05T17:51:51.362Z,60.00
2022-09-05T17:54:29.749Z,60.30
2022-09-05T17:56:56.506Z,60.70
2022-09-05T17:59:24.927Z,60.90
2022-09-05T18:02:06.740Z,61.20
2022-09-05T18:04:53.775Z,61.40
2022-09-05T18:07:26.551Z,61.70
2022-09-05T18:10:14.649Z,61.80
2022-09-05T18:15:34.634Z,62.10
2022-09-05T18:24:00.208Z,62.50
2022-09-05T18:26:28.409Z,62.50
2022-09-05T18:29:14.913Z,62.50
2022-09-05T18:31:42.736Z,62.80
2022-09-05T18:34:13.835Z,62.80
2022-09-05T18:36:42.524Z,63.00
2022-09-05T18:39:38.231Z,63.00
2022-09-05T18:42:25.607Z,63.20
2022-09-05T18:45:15.082Z,63.10
2022-09-05T18:47:58.025Z,63.30
2022-09-05T18:50:29.371Z,63.30
2022-09-05T18:53:09.290Z,63.40
2022-09-05T18:56:13.363Z,63.30
2022-09-05T18:58:30.001Z,63.30
2022-09-05T19:00:57.466Z,63.30
2022-09-05T19:03:30.017Z,63.40
2022-09-05T19:06:35.271Z,63.60
2022-09-05T19:08:54.170Z,63.70
2022-09-05T19:11:32.457Z,63.60
2022-09-05T19:14:26.116Z,63.80
2022-09-05T19:17:33.737Z,63.70
2022-09-05T19:20:31.743Z,63.90
2022-09-05T19:23:11.144Z,64.00
2022-09-05T19:25:44.582Z,64.10
2022-09-05T19:36:33.249Z,64.10
2022-09-05T19:36:54.775Z,64.10
2022-09-05T19:36:55.834Z,64.20
2022-09-05T19:37:30.306Z,64.30
2022-09-05T19:44:47.596Z,64.20
2022-09-05T19:47:33.938Z,64.30
2022-09-05T19:47:35.662Z,64.30
2022-09-05T19:48:26.481Z,64.70
2022-09-05T19:50:58.856Z,64.40
2022-09-05T19:53:25.942Z,65.00
2022-09-05T19:55:53.709Z,64.30
2022-09-05T19:58:22.352Z,64.40
2022-09-05T20:01:08.437Z,64.60
2022-09-05T20:03:40.909Z,64.80
2022-09-05T20:06:32.854Z,64.80
2022-09-05T20:09:20.188Z,65.00
2022-09-05T20:11:52.313Z,65.30
2022-09-05T20:14:30.821Z,65.30
2022-09-05T20:17:01.424Z,65.50
2022-09-05T20:19:31.928Z,65.40
2022-09-05T20:22:10.042Z,65.10
2022-09-05T20:24:49.548Z,65.30
2022-09-05T20:27:17.139Z,65.40
2022-09-05T20:29:55.843Z,65.40
2022-09-05T20:32:38.530Z,66.20
2022-09-05T20:39:26.487Z,65.50
2022-09-05T20:43:20.076Z,65.60
2022-09-05T20:43:31.960Z,65.60
2022-09-05T20:43:58.289Z,65.60
2022-09-05T20:52:49.039Z,65.80
2022-09-05T20:54:14.294Z,65.80
2022-09-05T20:54:21.139Z,65.80
2022-09-05T20:55:40.211Z,66.00
2022-09-05T20:58:15.671Z,65.90
2022-09-05T21:01:19.889Z,65.90
2022-09-05T21:03:37.924Z,66.20
2022-09-05T21:06:33.853Z,66.30
2022-09-05T21:09:26.099Z,66.50
2022-09-05T21:11:54.841Z,66.50
2022-09-05T21:14:23.239Z,66.30
2022-09-05T21:16:58.705Z,66.40
2022-09-05T21:19:30.806Z,66.70
2022-09-05T21:22:07.141Z,66.60
2022-09-05T21:24:33.958Z,66.60
2022-09-05T21:27:36.234Z,66.60
2022-09-05T21:30:23.535Z,66.70
2022-09-05T21:33:07.166Z,66.90
2022-09-05T21:35:42.058Z,66.80
2022-09-05T21:38:14.019Z,66.70
2022-09-05T21:40:42.309Z,66.90
2022-09-05T21:44:40.835Z,67.00
2022-09-05T21:47:49.162Z,67.10
2022-09-05T21:48:46.374Z,67.40
2022-09-05T21:51:15.860Z,67.50
2022-09-05T21:55:19.560Z,67.60
2022-09-05T21:59:26.136Z,67.80
2022-09-05T21:59:46.662Z,67.90
2022-09-05T22:02:15.569Z,68.10
2022-09-05T22:04:42.868Z,68.50
2022-09-05T22:07:16.251Z,68.50
2022-09-05T22:09:55.277Z,68.80
2022-09-05T22:12:30.657Z,68.90
2022-09-05T22:15:10.134Z,69.00
2022-09-05T22:17:45.796Z,69.10
2022-09-05T22:20:14.857Z,69.30
2022-09-05T22:22:41.673Z,69.30
2022-09-05T22:25:19.532Z,69.30
2022-09-05T22:28:18.960Z,69.30
2022-09-05T22:30:45.636Z,69.50
2022-09-05T22:33:12.994Z,69.50
2022-09-05T22:35:40.243Z,69.60
2022-09-05T22:38:12.456Z,69.70
2022-09-05T22:40:41.178Z,69.70
2022-09-05T22:43:09.818Z,69.90
2022-09-05T22:45:37.872Z,70.10
2022-09-05T22:48:10.068Z,70.10
2022-09-05T22:50:37.425Z,70.20
2022-09-05T22:53:06.965Z,70.20
2022-09-05T22:55:39.505Z,70.30
2022-09-05T22:58:07.504Z,70.30
2022-09-05T23:00:34.591Z,70.40
2022-09-05T23:03:03.411Z,70.20
2022-09-05T23:05:31.571Z,70.10
2022-09-05T23:08:02.743Z,69.90
2022-09-05T23:10:30.258Z,69.60
2022-09-05T23:12:57.360Z,69.50
2022-09-05T23:15:24.758Z,69.40
2022-09-05T23:17:55.706Z,69.20
2022-09-05T23:20:23.512Z,69.10
2022-09-05T23:22:50.212Z,69.00
2022-09-05T23:25:17.617Z,68.70
2022-09-05T23:27:44.501Z,68.40
2022-09-05T23:30:11.738Z,68.00
2022-09-05T23:32:47.465Z,67.60
2022-09-05T23:35:15.200Z,67.30
2022-09-05T23:37:46.164Z,67.10
2022-09-05T23:40:21.685Z,66.80
2022-09-05T23:43:00.874Z,66.50
2022-09-05T23:45:28.430Z,66.30
2022-09-05T23:47:57.309Z,66.20
2022-09-05T23:50:24.794Z,66.20
2022-09-05T23:52:51.623Z,66.30
2022-09-05T23:55:20.220Z,66.50
2022-09-05T23:57:47.142Z,66.80
